createdAt,value
2023-04-16T00:01:31.100Z,100620.66
2023-04-16T00:05:23.801Z,100624.56
2023-04-16T00:08:59.109Z,100618.69
2023-04-16T00:12:31.950Z,100615.36
2023-04-16T00:16:00.050Z,100612.17
2023-04-16T00:19:35.477Z,100611.56
2023-04-16T00:23:30.712Z,100613.61
2023-04-16T00:26:57.132Z,100610.88
2023-04-16T00:30:45.199Z,100610.53
2023-04-16T00:34:19.638Z,100611.19
2023-04-16T00:37:54.971Z,100613.85
2023-04-16T00:41:40.399Z,100607.78
2023-04-16T00:45:19.236Z,100609.11
2023-04-16T00:49:13.189Z,100604.73
2023-04-16T00:52:35.168Z,100606.02
2023-04-16T00:56:12.398Z,100608.23
2023-04-16T00:59:49.164Z,100607.07
2023-04-16T01:03:26.521Z,100605.56
2023-04-16T01:07:03.470Z,100605.13
2023-04-16T01:10:47.980Z,100608.66
2023-04-16T01:14:24.823Z,100613.83
2023-04-16T01:18:17.945Z,100611.23
2023-04-16T01:21:47.295Z,100607.58
2023-04-16T01:25:23.202Z,100609.64
2023-04-16T01:29:17.802Z,100617.61
2023-04-16T01:32:46.000Z,100611.95
2023-04-16T01:36:33.557Z,100614.80
2023-04-16T01:39:59.460Z,100617.50
2023-04-16T01:43:43.975Z,100620.30
2023-04-16T01:47:26.773Z,100626.81
2023-04-16T01:51:10.280Z,100628.55
2023-04-16T01:54:53.098Z,100639.16
2023-04-16T01:58:38.569Z,100644.63
2023-04-16T02:02:28.425Z,100646.23
2023-04-16T02:06:11.038Z,100649.10
2023-04-16T02:09:30.970Z,100647.58
2023-04-16T02:13:08.754Z,100651.48
2023-04-16T02:16:46.768Z,100657.20
2023-04-16T02:20:32.012Z,100658.36
2023-04-16T02:24:02.085Z,100668.21
2023-04-16T02:27:40.615Z,100674.38
2023-04-16T02:31:19.697Z,100676.23
2023-04-16T02:34:53.971Z,100673.88
2023-04-16T02:38:39.667Z,100673.06
2023-04-16T02:42:16.983Z,100677.52
2023-04-16T02:45:53.963Z,100683.30
2023-04-16T02:49:31.700Z,100683.86
2023-04-16T02:53:12.982Z,100690.76
2023-04-16T02:56:47.456Z,100693.29
2023-04-16T03:00:25.053Z,100693.86
2023-04-16T03:04:12.515Z,100692.09
2023-04-16T03:07:43.721Z,100694.70
2023-04-16T03:11:18.008Z,100698.95
2023-04-16T03:14:55.842Z,100700.20
2023-04-16T03:18:55.411Z,100701.16
2023-04-16T03:22:18.177Z,100703.66
2023-04-16T03:26:00.747Z,100703.69
2023-04-16T03:29:44.607Z,100696.58
2023-04-16T03:33:47.478Z,100701.66
2023-04-16T03:37:22.456Z,100705.70
2023-04-16T03:40:54.644Z,100697.03
2023-04-16T03:44:22.560Z,100697.67
2023-04-16T03:48:00.274Z,100699.55
2023-04-16T03:51:52.682Z,100696.59
2023-04-16T03:55:19.568Z,100705.17
2023-04-16T03:58:54.085Z,100708.48
2023-04-16T04:02:34.651Z,100711.73
2023-04-16T04:06:12.394Z,100713.57
2023-04-16T04:09:46.457Z,100712.54
2023-04-16T04:13:41.991Z,100717.92
2023-04-16T04:17:02.791Z,100722.03
2023-04-16T04:20:43.039Z,100722.96
2023-04-16T04:24:17.354Z,100729.41
2023-04-16T04:27:57.066Z,100728.23
2023-04-16T04:31:42.972Z,100729.37
2023-04-16T04:35:11.503Z,100736.92
2023-04-16T04:38:48.012Z,100743.64
2023-04-16T04:42:24.300Z,100743.95
2023-04-16T04:46:09.452Z,100745.48
2023-04-16T04:49:47.260Z,100747.24
2023-04-16T04:53:24.897Z,100749.91
2023-04-16T04:57:02.570Z,100756.70
2023-04-16T05:00:50.382Z,100759.15
2023-04-16T05:04:34.890Z,100763.95
2023-04-16T05:07:56.663Z,100766.16
2023-04-16T05:11:36.571Z,100762.20
2023-04-16T05:15:11.932Z,100764.89
2023-04-16T05:18:58.022Z,100764.73
2023-04-16T05:22:44.523Z,100764.80
2023-04-16T05:26:11.056Z,100768.79
2023-04-16T05:30:03.734Z,100768.08
2023-04-16T05:33:34.917Z,100770.13
2023-04-16T05:37:14.661Z,100775.53
2023-04-16T05:41:09.098Z,100779.02
2023-04-16T05:44:25.539Z,100781.60
2023-04-16T05:48:21.207Z,100786.71
2023-04-16T05:51:49.119Z,100785.94
2023-04-16T05:55:23.813Z,100785.02
2023-04-16T05:59:09.066Z,100786.61
2023-04-16T06:03:11.171Z,100792.95
2023-04-16T06:06:21.809Z,100788.05
2023-04-16T06:10:04.713Z,100789.35
2023-04-16T06:13:47.604Z,100788.61
2023-04-16T06:17:32.523Z,100787.40
2023-04-16T06:21:08.603Z,100789.08
2023-04-16T06:25:10.804Z,100789.70
2023-04-16T06:28:46.810Z,100787.30
2023-04-16T06:32:18.744Z,100787.61
2023-04-16T06:36:01.053Z,100790.86
2023-04-16T06:39:23.986Z,100790.58
2023-04-16T06:43:05.200Z,100797.46
2023-04-16T06:46:43.154Z,100800.57
2023-04-16T06:50:32.142Z,100804.36
2023-04-16T06:54:10.286Z,100806.62
2023-04-16T06:57:30.624Z,100810.41
2023-04-16T07:01:14.287Z,100813.41
2023-04-16T07:04:58.816Z,100813.45
2023-04-16T07:08:36.910Z,100813.27
2023-04-16T07:12:24.442Z,100815.46
2023-04-16T07:15:55.672Z,100820.84
2023-04-16T07:19:32.597Z,100824.85
2023-04-16T07:23:20.855Z,100826.09
2023-04-16T07:27:09.713Z,100834.11
2023-04-16T07:30:34.332Z,100836.38
2023-04-16T07:34:20.689Z,100841.94
2023-04-16T07:37:55.211Z,100843.98
2023-04-16T07:41:40.818Z,100847.65
2023-04-16T07:45:17.961Z,100849.15
2023-04-16T07:48:55.545Z,100852.65
2023-04-16T07:52:45.386Z,100857.48
2023-04-16T07:56:27.841Z,100855.22
2023-04-16T07:59:55.985Z,100867.95
2023-04-16T08:03:31.822Z,100871.54
2023-04-16T08:07:37.447Z,100872.15
2023-04-16T08:10:56.045Z,100873.14
2023-04-16T08:14:33.172Z,100877.95
2023-04-16T08:18:15.688Z,100880.30
2023-04-16T08:21:46.620Z,100883.48
2023-04-16T08:25:30.220Z,100882.38
2023-04-16T08:29:15.955Z,100886.26
2023-04-16T08:32:50.830Z,100881.44
2023-04-16T08:36:50.138Z,100881.21
2023-04-16T08:40:14.087Z,100879.91
2023-04-16T08:44:09.359Z,100875.34
2023-04-16T08:47:31.893Z,100877.10
2023-04-16T08:51:07.113Z,100883.07
2023-04-16T08:55:13.362Z,100891.81
2023-04-16T08:58:23.732Z,100891.17
2023-04-16T09:02:01.012Z,100892.34
2023-04-16T09:05:57.318Z,100888.99
2023-04-16T09:09:23.748Z,100891.60
2023-04-16T09:13:09.563Z,100896.05
2023-04-16T09:16:48.545Z,100903.31
2023-04-16T09:20:24.984Z,100906.20
2023-04-16T09:24:02.548Z,100912.15
2023-04-16T09:27:40.800Z,100917.67
2023-04-16T09:31:18.815Z,100914.00
2023-04-16T09:35:02.485Z,100913.48
2023-04-16T09:38:54.909Z,100914.11
2023-04-16T09:42:41.067Z,100916.73
2023-04-16T09:46:18.642Z,100913.85
2023-04-16T09:50:19.613Z,100915.20
2023-04-16T09:54:05.378Z,100921.27
2023-04-16T09:57:18.704Z,100923.84
2023-04-16T10:01:06.066Z,100921.23
2023-04-16T10:05:18.127Z,100927.05
2023-04-16T10:08:38.364Z,100926.38
2023-04-16T10:12:06.177Z,100925.23
2023-04-16T10:16:00.752Z,100932.39
2023-04-16T10:19:31.623Z,100930.13
2023-04-16T10:23:24.245Z,100931.51
2023-04-16T10:26:54.918Z,100931.89
2023-04-16T10:30:20.485Z,100935.25
2023-04-16T10:34:05.145Z,100937.14
2023-04-16T10:38:22.885Z,100940.63
2023-04-16T10:41:22.617Z,100942.71
2023-04-16T10:45:31.192Z,100945.02
2023-04-16T10:48:50.446Z,100944.90
2023-04-16T10:52:25.155Z,100945.71
2023-04-16T10:56:11.349Z,100943.33
2023-04-16T10:59:39.930Z,100943.77
2023-04-16T11:03:46.126Z,100945.64
2023-04-16T11:07:05.624Z,100945.79
2023-04-16T11:10:31.473Z,100950.80
2023-04-16T11:14:07.427Z,100956.71
2023-04-16T11:17:53.215Z,100957.79
2023-04-16T11:21:31.886Z,100960.36
2023-04-16T11:25:25.977Z,100960.80
2023-04-16T11:28:45.187Z,100959.46
2023-04-16T11:32:25.094Z,100956.48
2023-04-16T11:36:09.847Z,100959.78
2023-04-16T11:39:55.378Z,100956.29
2023-04-16T11:43:32.287Z,100957.05
2023-04-16T11:47:09.711Z,100952.21
2023-04-16T11:50:59.298Z,100949.16
2023-04-16T11:54:57.164Z,100938.14
2023-04-16T11:58:26.600Z,100936.32
2023-04-16T12:01:50.061Z,100937.23
2023-04-16T12:05:32.853Z,100941.81
2023-04-16T12:09:35.665Z,100938.31
2023-04-16T12:13:16.136Z,100941.67
2023-04-16T12:16:49.907Z,100940.54
2023-04-16T12:20:14.112Z,100937.60
2023-04-16T12:23:48.167Z,100938.04
2023-04-16T12:27:46.804Z,100929.91
2023-04-16T12:31:40.766Z,100929.42
2023-04-16T12:35:10.512Z,100928.05
2023-04-16T12:38:46.987Z,100927.86
2023-04-16T12:42:23.695Z,100923.29
2023-04-16T12:46:23.224Z,100921.73
2023-04-16T12:49:44.660Z,100917.93
2023-04-16T12:53:29.141Z,100915.44
2023-04-16T12:57:38.765Z,100915.30
2023-04-16T13:00:49.406Z,100918.75
2023-04-16T13:04:44.356Z,100915.70
2023-04-16T13:08:29.103Z,100915.77
2023-04-16T13:11:47.635Z,100916.89
2023-04-16T13:15:30.517Z,100921.27
2023-04-16T13:19:19.205Z,100923.73
2023-04-16T13:22:50.930Z,100918.15
2023-04-16T13:26:33.452Z,100913.95
2023-04-16T13:30:19.385Z,100916.39
2023-04-16T13:34:11.730Z,100913.51
2023-04-16T13:37:33.765Z,100915.61
2023-04-16T13:41:21.118Z,100917.83
2023-04-16T13:44:53.063Z,100915.33
2023-04-16T13:48:25.769Z,100912.27
2023-04-16T13:52:10.230Z,100911.69
2023-04-16T13:55:56.987Z,100909.40
2023-04-16T13:59:35.650Z,100905.66
2023-04-16T14:03:03.569Z,100906.88
2023-04-16T14:06:41.768Z,100906.35
2023-04-16T14:10:19.473Z,100905.23
2023-04-16T14:14:04.490Z,100909.65
2023-04-16T14:17:49.167Z,100906.11
2023-04-16T14:21:12.025Z,100906.52
2023-04-16T14:24:56.752Z,100911.00
2023-04-16T14:28:33.559Z,100908.69
2023-04-16T14:32:19.203Z,100910.33
2023-04-16T14:35:57.501Z,100916.92
2023-04-16T14:39:33.825Z,100913.61
2023-04-16T14:43:28.209Z,100916.00
2023-04-16T14:46:49.014Z,100915.78
2023-04-16T14:51:00.591Z,100917.39
2023-04-16T14:54:27.455Z,100922.05
2023-04-16T14:57:50.105Z,100924.45
2023-04-16T15:01:26.313Z,100927.24
2023-04-16T15:05:12.645Z,100932.04
2023-04-16T15:08:49.689Z,100925.89
2023-04-16T15:12:26.580Z,100928.64
2023-04-16T15:16:05.518Z,100931.70
2023-04-16T15:19:51.151Z,100930.30
2023-04-16T15:23:46.577Z,100930.02
2023-04-16T15:26:55.265Z,100930.28
2023-04-16T15:31:04.797Z,100936.11
2023-04-16T15:34:19.629Z,100938.84
2023-04-16T15:37:56.799Z,100937.66
2023-04-16T15:41:36.284Z,100940.27
2023-04-16T15:45:11.484Z,100942.10
2023-04-16T15:48:58.506Z,100946.22
2023-04-16T15:52:26.189Z,100949.20
2023-04-16T15:56:05.383Z,100951.98
2023-04-16T16:00:06.536Z,100952.63
2023-04-16T16:03:20.183Z,100949.81
2023-04-16T16:06:55.753Z,100951.41
2023-04-16T16:10:41.028Z,100954.69
2023-04-16T16:14:28.017Z,100960.27
2023-04-16T16:17:57.622Z,100962.48
2023-04-16T16:21:41.278Z,100965.70
2023-04-16T16:25:25.280Z,100971.36
2023-04-16T16:29:09.029Z,100977.55
2023-04-16T16:32:52.839Z,100979.58
2023-04-16T16:36:49.744Z,100986.94
2023-04-16T16:40:18.956Z,100989.93
2023-04-16T16:43:56.163Z,100992.38
2023-04-16T16:47:38.704Z,100997.76
2023-04-16T16:51:06.577Z,101004.11
2023-04-16T16:54:50.147Z,101002.98
2023-04-16T16:58:51.536Z,101010.64
2023-04-16T17:02:21.289Z,101018.33
2023-04-16T17:05:48.390Z,101018.11
2023-04-16T17:09:42.933Z,101022.04
2023-04-16T17:13:13.721Z,101028.97
2023-04-16T17:16:49.835Z,101033.66
2023-04-16T17:20:34.472Z,101036.45
2023-04-16T17:24:10.653Z,101047.70
2023-04-16T17:27:55.764Z,101049.96
2023-04-16T17:31:34.317Z,101056.73
2023-04-16T17:35:13.803Z,101057.38
2023-04-16T17:39:00.069Z,101062.94
2023-04-16T17:42:37.882Z,101066.16
2023-04-16T17:46:13.935Z,101073.41
2023-04-16T17:49:58.486Z,101070.39
2023-04-16T17:53:42.589Z,101073.18
2023-04-16T17:57:27.213Z,101081.15
2023-04-16T18:01:29.357Z,101079.91
2023-04-16T18:04:43.042Z,101081.33
2023-04-16T18:08:38.162Z,101086.79
2023-04-16T18:11:59.104Z,101085.95
2023-04-16T18:15:53.531Z,101089.85
2023-04-16T18:19:11.875Z,101090.07
2023-04-16T18:22:54.403Z,101090.02
2023-04-16T18:26:47.274Z,101089.85
2023-04-16T18:30:33.159Z,101098.35
2023-04-16T18:33:57.851Z,101099.78
2023-04-16T18:37:50.070Z,101098.80
2023-04-16T18:41:09.947Z,101111.28
2023-04-16T18:48:26.256Z,101116.39
2023-04-16T18:52:04.032Z,101115.80
2023-04-16T18:56:06.386Z,101118.73
2023-04-16T18:59:16.557Z,101118.66
2023-04-16T19:03:11.347Z,101119.61
2023-04-16T19:07:05.651Z,101123.23
2023-04-16T19:10:16.669Z,101123.36
2023-04-16T19:14:05.918Z,101121.98
2023-04-16T19:17:48.646Z,101127.29
2023-04-16T19:21:11.004Z,101122.23
2023-04-16T19:25:04.711Z,101129.69
2023-04-16T19:28:26.531Z,101129.02
2023-04-16T19:32:03.069Z,101132.35
2023-04-16T19:35:46.252Z,101129.23
2023-04-16T19:39:33.976Z,101130.48
2023-04-16T19:42:54.973Z,101135.76
2023-04-16T19:46:39.613Z,101130.26
2023-04-16T19:50:17.505Z,101131.92
2023-04-16T19:54:13.155Z,101133.11
2023-04-16T19:57:39.772Z,101133.84
2023-04-16T20:01:28.300Z,101132.21
2023-04-16T20:04:55.203Z,101133.71
2023-04-16T20:08:33.245Z,101132.27
2023-04-16T20:12:09.335Z,101127.79
2023-04-16T20:16:12.894Z,101130.45
2023-04-16T20:19:33.714Z,101134.13
2023-04-16T20:23:16.428Z,101132.38
2023-04-16T20:27:19.133Z,101128.70
2023-04-16T20:30:39.794Z,101128.77
2023-04-16T20:34:24.400Z,101132.16
2023-04-16T20:38:10.097Z,101130.71
2023-04-16T20:41:56.297Z,101133.40
2023-04-16T20:45:15.643Z,101126.07
2023-04-16T20:48:58.297Z,101126.21
2023-04-16T20:52:42.469Z,101124.83
2023-04-16T20:56:34.957Z,101131.73
2023-04-16T21:00:09.440Z,101130.07
2023-04-16T21:03:41.797Z,101128.95
2023-04-16T21:07:27.683Z,101127.52
2023-04-16T21:11:21.266Z,101132.27
2023-04-16T21:14:42.944Z,101129.09
2023-04-16T21:18:19.665Z,101136.05
2023-04-16T21:22:04.657Z,101129.19
2023-04-16T21:25:56.813Z,101140.33
2023-04-16T21:29:19.802Z,101142.62
2023-04-16T21:33:21.314Z,101137.94
2023-04-16T21:36:40.624Z,101132.79
2023-04-16T21:40:23.618Z,101140.89
2023-04-16T21:44:09.396Z,101139.73
2023-04-16T21:47:47.139Z,101147.09
2023-04-16T21:51:29.289Z,101145.95
2023-04-16T21:55:01.489Z,101145.42
2023-04-16T21:58:55.936Z,101147.10
2023-04-16T22:02:34.038Z,101146.02
2023-04-16T22:06:05.534Z,101147.49
2023-04-16T22:09:32.427Z,101148.52
2023-04-16T22:13:12.709Z,101149.66
2023-04-16T22:16:49.942Z,101153.10
2023-04-16T22:20:25.730Z,101155.35
2023-04-16T22:24:03.518Z,101154.51
2023-04-16T22:27:49.158Z,101157.14
2023-04-16T22:31:25.913Z,101154.44
2023-04-16T22:35:03.378Z,101145.66
2023-04-16T22:38:47.900Z,101154.78
2023-04-16T22:42:30.613Z,101155.80
2023-04-16T22:46:32.375Z,101152.86
2023-04-16T22:50:01.034Z,101148.52
2023-04-16T22:53:30.960Z,101153.48
2023-04-16T22:57:09.768Z,101147.38
2023-04-16T23:00:48.010Z,101146.70
2023-04-16T23:04:23.780Z,101144.35
2023-04-16T23:08:01.981Z,101145.81
2023-04-16T23:11:39.986Z,101144.89
2023-04-16T23:15:17.471Z,101139.30
2023-04-16T23:18:54.595Z,101142.35
2023-04-16T23:22:33.318Z,101138.85
2023-04-16T23:26:09.929Z,101137.94
2023-04-16T23:29:51.256Z,101135.91
2023-04-16T23:33:23.297Z,101133.94
2023-04-16T23:37:07.812Z,101135.73
2023-04-16T23:41:03.918Z,101130.22
2023-04-16T23:44:21.447Z,101124.32
2023-04-16T23:48:08.110Z,101124.56
2023-04-16T23:51:41.712Z,101125.95
2023-04-16T23:55:36.249Z,101123.59
2023-04-16T23:59:01.940Z,101124.75
